createdAt,value
2022-09-23T00:01:31.000Z,100331.78
2022-09-23T00:04:00.197Z,100328.81
2022-09-23T00:06:28.544Z,100334.94
2022-09-23T00:08:56.571Z,100333.81
2022-09-23T00:11:27.563Z,100337.75
2022-09-23T00:13:58.411Z,100320.03
2022-09-23T00:16:33.424Z,100313.41
2022-09-23T00:19:02.657Z,100320.38
2022-09-23T00:21:31.197Z,100317.50
2022-09-23T00:23:59.419Z,100316.03
2022-09-23T00:26:28.242Z,100314.44
2022-09-23T00:28:56.791Z,100311.37
2022-09-23T00:31:27.331Z,100311.25
2022-09-23T00:34:02.465Z,100312.88
2022-09-23T00:36:32.330Z,100311.41
2022-09-23T00:39:00.417Z,100303.03
2022-09-23T00:41:28.947Z,100304.94
2022-09-23T00:43:59.904Z,100305.75
2022-09-23T00:46:43.766Z,100301.31
2022-09-23T00:49:22.235Z,100304.22
2022-09-23T00:51:56.383Z,100296.34
2022-09-23T00:54:27.399Z,100298.22
2022-09-23T00:56:57.765Z,100295.16
2022-09-23T00:59:29.057Z,100300.31
2022-09-23T01:01:59.104Z,100299.91
2022-09-23T01:04:29.845Z,100308.25
2022-09-23T01:06:57.988Z,100302.63
2022-09-23T01:09:26.485Z,100299.78
2022-09-23T01:12:02.534Z,100313.91
2022-09-23T01:14:55.090Z,100309.66
2022-09-23T01:17:36.547Z,100306.34
2022-09-23T01:20:32.184Z,100296.53
2022-09-23T01:23:22.145Z,100302.94
2022-09-23T01:26:11.776Z,100289.66
2022-09-23T01:29:02.409Z,100302.38
2022-09-23T01:31:55.209Z,100306.06
2022-09-23T01:34:37.406Z,100304.53
2022-09-23T01:37:13.512Z,100300.63
2022-09-23T01:40:17.425Z,100303.97
2022-09-23T01:43:10.464Z,100302.66
2022-09-23T01:45:42.078Z,100297.03
2022-09-23T01:48:42.112Z,100290.59
2022-09-23T01:51:26.900Z,100300.97
2022-09-23T01:54:15.910Z,100302.00
2022-09-23T01:56:52.897Z,100302.81
2022-09-23T01:59:38.445Z,100299.56
2022-09-23T02:02:15.307Z,100296.25
2022-09-23T02:04:54.378Z,100298.13
2022-09-23T02:07:33.848Z,100298.91
2022-09-23T02:10:18.910Z,100291.69
2022-09-23T02:12:52.167Z,100297.41
2022-09-23T02:15:27.867Z,100295.97
2022-09-23T02:18:01.994Z,100287.41
2022-09-23T02:20:34.819Z,100282.50
2022-09-23T02:23:17.210Z,100283.31
2022-09-23T02:25:56.383Z,100287.25
2022-09-23T02:28:45.150Z,100289.28
2022-09-23T02:31:40.785Z,100288.69
2022-09-23T02:34:41.208Z,100292.25
2022-09-23T02:37:37.385Z,100280.75
2022-09-23T02:40:31.067Z,100289.00
2022-09-23T02:43:35.506Z,100282.00
2022-09-23T02:46:06.009Z,100291.69
2022-09-23T02:48:41.853Z,100286.41
2022-09-23T02:51:10.476Z,100285.69
2022-09-23T02:53:39.649Z,100284.94
2022-09-23T02:56:16.807Z,100285.34
2022-09-23T02:58:47.032Z,100293.59
2022-09-23T03:01:47.794Z,100290.38
2022-09-23T03:04:47.440Z,100291.84
2022-09-23T03:07:24.347Z,100293.75
2022-09-23T03:09:55.417Z,100295.00
2022-09-23T03:13:02.092Z,100292.53
2022-09-23T03:15:39.112Z,100293.94
2022-09-23T03:18:11.728Z,100298.56
2022-09-23T03:20:50.564Z,100290.22
2022-09-23T03:23:25.458Z,100289.50
2022-09-23T03:25:56.880Z,100285.44
2022-09-23T03:28:27.224Z,100286.34
2022-09-23T03:30:59.937Z,100289.88
2022-09-23T03:33:28.947Z,100287.44
2022-09-23T03:36:22.767Z,100287.44
2022-09-23T03:38:55.040Z,100291.31
2022-09-23T03:41:38.874Z,100294.25
2022-09-23T03:44:09.219Z,100286.06
2022-09-23T03:46:37.918Z,100280.69
2022-09-23T03:49:16.481Z,100283.81
2022-09-23T03:51:45.285Z,100279.88
2022-09-23T03:54:13.304Z,100277.81
2022-09-23T03:56:41.975Z,100280.69
2022-09-23T03:59:10.268Z,100265.91
2022-09-23T04:01:38.334Z,100282.34
2022-09-23T04:04:06.867Z,100283.78
2022-09-23T04:06:35.666Z,100280.03
2022-09-23T04:09:03.936Z,100279.56
2022-09-23T04:11:32.480Z,100275.94
2022-09-23T04:14:00.713Z,100276.34
2022-09-23T04:16:29.186Z,100279.50
2022-09-23T04:18:57.722Z,100285.44
2022-09-23T04:21:26.887Z,100283.16
2022-09-23T04:23:54.945Z,100283.03
2022-09-23T04:26:23.551Z,100285.25
2022-09-23T04:28:51.715Z,100295.38
2022-09-23T04:31:19.825Z,100305.22
2022-09-23T04:33:48.355Z,100297.03
2022-09-23T04:36:17.016Z,100290.41
2022-09-23T04:38:49.209Z,100290.47
2022-09-23T04:41:18.722Z,100293.66
2022-09-23T04:43:47.038Z,100294.16
2022-09-23T04:46:16.389Z,100306.31
2022-09-23T04:48:45.288Z,100297.53
2022-09-23T04:51:16.370Z,100301.53
2022-09-23T04:53:46.994Z,100298.13
2022-09-23T04:56:20.468Z,100301.87
2022-09-23T04:58:49.781Z,100302.28
2022-09-23T05:01:26.857Z,100307.34
2022-09-23T05:04:14.991Z,100310.03
2022-09-23T05:06:45.153Z,100303.72
2022-09-23T05:09:17.792Z,100313.75
2022-09-23T05:11:46.282Z,100310.31
2022-09-23T05:14:14.761Z,100305.69
2022-09-23T05:16:43.016Z,100317.78
2022-09-23T05:19:13.648Z,100316.09
2022-09-23T05:21:42.142Z,100320.53
2022-09-23T05:24:12.365Z,100315.44
2022-09-23T05:26:40.883Z,100312.56
2022-09-23T05:29:09.325Z,100322.56
2022-09-23T05:31:37.408Z,100322.56
2022-09-23T05:34:06.100Z,100327.56
2022-09-23T05:36:38.645Z,100330.19
2022-09-23T05:39:08.605Z,100335.63
2022-09-23T05:41:37.248Z,100329.34
2022-09-23T05:44:05.636Z,100339.47
2022-09-23T05:46:34.360Z,100339.16
2022-09-23T05:49:04.320Z,100340.94
2022-09-23T05:51:34.751Z,100340.25
2022-09-23T05:54:04.480Z,100346.72
2022-09-23T05:56:33.810Z,100332.84
2022-09-23T05:59:02.705Z,100335.31
2022-09-23T06:01:34.328Z,100332.03
2022-09-23T06:04:05.571Z,100341.94
2022-09-23T06:06:39.602Z,100332.53
2022-09-23T06:09:11.757Z,100335.94
2022-09-23T06:11:40.309Z,100335.72
2022-09-23T06:14:12.158Z,100333.97
2022-09-23T06:16:40.328Z,100344.19
2022-09-23T06:19:09.937Z,100341.38
2022-09-23T06:21:40.535Z,100339.53
2022-09-23T06:24:13.298Z,100347.78
2022-09-23T06:26:44.169Z,100352.16
2022-09-23T06:29:12.768Z,100353.91
2022-09-23T06:31:42.120Z,100354.47
2022-09-23T06:34:16.492Z,100357.19
2022-09-23T06:36:46.597Z,100353.56
2022-09-23T06:39:15.918Z,100350.09
2022-09-23T06:41:45.468Z,100344.06
2022-09-23T06:44:14.452Z,100351.16
2022-09-23T06:46:44.129Z,100349.34
2022-09-23T06:49:13.388Z,100357.78
2022-09-23T06:51:41.899Z,100352.31
2022-09-23T06:54:11.116Z,100361.22
2022-09-23T06:56:40.280Z,100353.44
2022-09-23T06:59:11.387Z,100360.03
2022-09-23T07:01:39.760Z,100358.28
2022-09-23T07:04:10.683Z,100354.66
2022-09-23T07:06:39.376Z,100354.19
2022-09-23T07:09:09.098Z,100361.12
2022-09-23T07:11:37.811Z,100362.25
2022-09-23T07:14:06.079Z,100361.34
2022-09-23T07:16:34.491Z,100366.53
2022-09-23T07:19:02.658Z,100354.44
2022-09-23T07:21:31.747Z,100348.50
2022-09-23T07:24:00.169Z,100353.84
2022-09-23T07:26:29.512Z,100358.81
2022-09-23T07:29:04.945Z,100362.41
2022-09-23T07:31:39.518Z,100364.91
2022-09-23T07:34:11.652Z,100364.03
2022-09-23T07:36:40.930Z,100363.28
2022-09-23T07:39:11.472Z,100361.69
2022-09-23T07:41:41.885Z,100358.50
2022-09-23T07:44:11.845Z,100367.69
2022-09-23T07:46:40.353Z,100362.50
2022-09-23T07:49:08.831Z,100366.84
2022-09-23T07:51:39.493Z,100364.56
2022-09-23T07:54:12.384Z,100364.56
2022-09-23T07:56:41.874Z,100357.44
2022-09-23T07:59:17.276Z,100371.66
2022-09-23T08:01:48.794Z,100362.87
2022-09-23T08:04:18.765Z,100362.63
2022-09-23T08:06:54.035Z,100359.88
2022-09-23T08:09:25.456Z,100376.75
2022-09-23T08:11:54.078Z,100366.78
2022-09-23T08:14:22.659Z,100367.50
2022-09-23T08:16:52.019Z,100366.56
2022-09-23T08:19:20.497Z,100356.44
2022-09-23T08:21:52.075Z,100366.66
2022-09-23T08:24:23.877Z,100359.34
2022-09-23T08:26:54.374Z,100364.44
2022-09-23T08:29:24.835Z,100357.72
2022-09-23T08:31:53.840Z,100352.50
2022-09-23T08:34:23.579Z,100358.41
2022-09-23T08:36:52.543Z,100350.34
2022-09-23T08:39:21.004Z,100351.25
2022-09-23T08:42:19.252Z,100361.53
2022-09-23T08:45:04.935Z,100361.47
2022-09-23T08:47:43.789Z,100361.56
2022-09-23T08:50:15.083Z,100345.81
2022-09-23T08:52:50.937Z,100351.63
2022-09-23T08:55:21.676Z,100349.00
2022-09-23T08:58:26.017Z,100346.03
2022-09-23T09:01:23.409Z,100358.69
2022-09-23T09:04:02.123Z,100340.84
2022-09-23T09:06:52.527Z,100345.19
2022-09-23T09:09:36.754Z,100343.88
2022-09-23T09:12:11.755Z,100344.78
2022-09-23T09:14:52.132Z,100345.03
2022-09-23T09:17:35.289Z,100335.31
2022-09-23T09:20:23.402Z,100336.66
2022-09-23T09:23:15.582Z,100331.03
2022-09-23T09:25:50.081Z,100332.41
2022-09-23T09:28:27.962Z,100328.13
2022-09-23T09:31:02.989Z,100315.50
2022-09-23T09:33:44.717Z,100330.59
2022-09-23T09:36:47.661Z,100326.34
2022-09-23T09:39:16.509Z,100319.59
2022-09-23T09:41:52.460Z,100314.91
2022-09-23T09:44:39.188Z,100311.03
2022-09-23T09:47:15.245Z,100307.59
2022-09-23T09:49:59.076Z,100303.78
2022-09-23T09:52:29.926Z,100300.16
2022-09-23T09:55:13.442Z,100298.03
2022-09-23T09:57:50.173Z,100298.16
2022-09-23T10:00:35.637Z,100295.34
2022-09-23T10:03:13.546Z,100296.12
2022-09-23T10:05:45.089Z,100297.03
2022-09-23T10:08:35.334Z,100291.50
2022-09-23T10:11:13.006Z,100284.19
2022-09-23T10:13:42.664Z,100280.91
2022-09-23T10:16:10.948Z,100285.31
2022-09-23T10:18:48.056Z,100284.97
2022-09-23T10:21:23.116Z,100276.00
2022-09-23T10:23:58.730Z,100280.84
2022-09-23T10:26:41.278Z,100286.72
2022-09-23T10:29:36.996Z,100293.03
2022-09-23T10:32:30.315Z,100287.53
2022-09-23T10:35:04.727Z,100281.66
2022-09-23T10:37:37.628Z,100277.91
2022-09-23T10:40:37.264Z,100281.69
2022-09-23T10:43:58.477Z,100275.94
2022-09-23T10:46:39.839Z,100285.78
2022-09-23T10:49:27.670Z,100282.53
2022-09-23T10:52:07.521Z,100283.34
2022-09-23T10:55:02.385Z,100277.69
2022-09-23T10:57:53.531Z,100279.44
2022-09-23T11:00:47.011Z,100277.63
2022-09-23T11:03:26.966Z,100270.72
2022-09-23T11:06:38.890Z,100272.47
2022-09-23T11:09:26.983Z,100274.78
2022-09-23T11:12:02.043Z,100262.53
2022-09-23T11:15:02.481Z,100257.72
2022-09-23T11:18:02.929Z,100262.25
2022-09-23T11:20:33.696Z,100256.69
2022-09-23T11:23:20.291Z,100252.41
2022-09-23T11:26:06.195Z,100263.09
2022-09-23T11:28:40.636Z,100257.06
2022-09-23T11:31:27.072Z,100255.84
2022-09-23T11:34:35.173Z,100245.19
2022-09-23T11:37:14.029Z,100249.00
2022-09-23T11:39:52.530Z,100240.37
2022-09-23T11:42:25.189Z,100244.50
2022-09-23T11:44:58.388Z,100247.37
2022-09-23T11:47:39.746Z,100240.00
2022-09-23T11:50:33.375Z,100233.47
2022-09-23T11:53:21.584Z,100239.06
2022-09-23T11:56:01.226Z,100233.75
2022-09-23T11:58:46.174Z,100230.78
2022-09-23T12:01:45.576Z,100233.00
2022-09-23T12:04:23.150Z,100230.66
2022-09-23T12:07:02.963Z,100231.84
2022-09-23T12:09:57.730Z,100221.97
2022-09-23T12:12:39.517Z,100221.03
2022-09-23T12:15:38.800Z,100222.25
2022-09-23T12:18:13.063Z,100221.25
2022-09-23T12:21:03.078Z,100215.16
2022-09-23T12:23:37.307Z,100214.91
2022-09-23T12:26:14.691Z,100217.78
2022-09-23T12:28:45.530Z,100215.78
2022-09-23T12:31:18.662Z,100195.88
2022-09-23T12:33:52.424Z,100195.25
2022-09-23T12:36:34.775Z,100195.97
2022-09-23T12:39:08.196Z,100198.91
2022-09-23T12:41:46.376Z,100188.72
2022-09-23T12:44:26.663Z,100190.72
2022-09-23T12:47:26.001Z,100180.84
2022-09-23T12:49:55.266Z,100184.28
2022-09-23T12:52:30.921Z,100175.25
2022-09-23T12:55:24.464Z,100177.50
2022-09-23T12:57:53.257Z,100170.00
2022-09-23T13:00:27.437Z,100172.22
2022-09-23T13:03:18.345Z,100172.87
2022-09-23T13:06:16.982Z,100166.00
2022-09-23T13:08:47.307Z,100162.91
2022-09-23T13:11:31.663Z,100157.31
2022-09-23T13:14:05.162Z,100156.09
2022-09-23T13:16:43.842Z,100161.63
2022-09-23T13:19:38.699Z,100162.31
2022-09-23T13:22:12.039Z,100164.94
2022-09-23T13:24:52.434Z,100155.66
2022-09-23T13:27:33.774Z,100160.88
2022-09-23T13:30:07.821Z,100150.75
2022-09-23T13:32:41.078Z,100149.03
2022-09-23T13:35:24.468Z,100152.63
2022-09-23T13:37:53.703Z,100144.72
2022-09-23T13:40:28.617Z,100149.34
2022-09-23T13:43:00.859Z,100147.53
2022-09-23T13:45:34.124Z,100140.81
2022-09-23T13:48:15.525Z,100137.84
2022-09-23T13:50:48.651Z,100145.19
2022-09-23T13:53:29.630Z,100139.09
2022-09-23T13:56:02.120Z,100140.56
2022-09-23T13:58:32.604Z,100138.63
2022-09-23T14:01:01.306Z,100133.16
2022-09-23T14:03:37.303Z,100135.47
2022-09-23T14:06:09.730Z,100131.97
2022-09-23T14:08:47.529Z,100126.47
2022-09-23T14:11:29.500Z,100128.84
2022-09-23T14:14:01.004Z,100118.44
2022-09-23T14:16:30.073Z,100120.03
2022-09-23T14:19:00.702Z,100114.78
2022-09-23T14:21:34.857Z,100120.31
2022-09-23T14:24:22.881Z,100115.59
2022-09-23T14:26:57.292Z,100120.97
2022-09-23T14:29:26.979Z,100126.22
2022-09-23T14:32:04.480Z,100125.16
2022-09-23T14:34:41.788Z,100124.16
2022-09-23T14:37:37.755Z,100130.12
2022-09-23T14:40:13.353Z,100126.03
2022-09-23T14:42:44.839Z,100115.44
2022-09-23T14:45:18.540Z,100110.63
2022-09-23T14:47:58.379Z,100117.44
2022-09-23T14:50:47.198Z,100109.91
2022-09-23T14:53:24.177Z,100110.72
2022-09-23T14:55:58.841Z,100105.00
2022-09-23T14:58:30.879Z,100100.41
2022-09-23T15:01:01.526Z,100103.81
2022-09-23T15:03:30.038Z,100114.34
2022-09-23T15:06:09.292Z,100109.09
2022-09-23T15:08:37.397Z,100103.91
2022-09-23T15:11:08.356Z,100104.28
2022-09-23T15:13:42.024Z,100101.84
2022-09-23T15:16:14.416Z,100102.84
2022-09-23T15:18:46.374Z,100097.66
2022-09-23T15:21:19.453Z,100099.41
2022-09-23T15:23:56.127Z,100099.13
2022-09-23T15:26:40.658Z,100097.84
2022-09-23T15:29:09.928Z,100095.28
2022-09-23T15:31:39.057Z,100099.47
2022-09-23T15:34:07.360Z,100087.94
2022-09-23T15:36:37.033Z,100089.09
2022-09-23T15:39:08.675Z,100092.06
2022-09-23T15:41:36.801Z,100098.47
2022-09-23T15:44:17.217Z,100095.22
2022-09-23T15:46:49.024Z,100097.66
2022-09-23T15:49:33.099Z,100093.09
2022-09-23T15:52:02.696Z,100096.44
2022-09-23T15:54:32.500Z,100094.22
2022-09-23T15:57:01.396Z,100095.88
2022-09-23T15:59:31.586Z,100103.34
2022-09-23T16:02:08.697Z,100108.28
2022-09-23T16:04:38.767Z,100094.41
2022-09-23T16:07:16.635Z,100097.03
2022-09-23T16:09:45.129Z,100094.09
2022-09-23T16:12:13.507Z,100084.81
2022-09-23T16:14:41.659Z,100089.28
2022-09-23T16:17:13.583Z,100093.06
2022-09-23T16:19:41.820Z,100097.81
2022-09-23T16:22:14.564Z,100094.06
2022-09-23T16:24:43.049Z,100092.94
2022-09-23T16:27:17.560Z,100101.78
2022-09-23T16:29:45.818Z,100097.38
2022-09-23T16:32:16.033Z,100105.53
2022-09-23T16:34:47.131Z,100104.72
2022-09-23T16:37:16.629Z,100101.97
2022-09-23T16:39:44.723Z,100098.56
2022-09-23T16:42:13.575Z,100087.75
2022-09-23T16:44:42.125Z,100084.16
2022-09-23T16:47:10.101Z,100099.72
2022-09-23T16:49:38.641Z,100090.88
2022-09-23T16:52:07.575Z,100095.00
2022-09-23T16:54:37.497Z,100098.75
2022-09-23T16:57:06.238Z,100101.84
2022-09-23T16:59:54.507Z,100105.78
2022-09-23T17:02:41.668Z,100104.97
2022-09-23T17:05:10.904Z,100098.28
2022-09-23T17:07:38.984Z,100096.50
2022-09-23T17:10:07.577Z,100105.47
2022-09-23T17:12:36.659Z,100101.22
2022-09-23T17:15:07.437Z,100097.28
2022-09-23T17:17:37.886Z,100104.31
2022-09-23T17:20:06.718Z,100100.63
2022-09-23T17:22:34.808Z,100098.75
2022-09-23T17:25:03.968Z,100100.47
2022-09-23T17:27:33.432Z,100103.03
2022-09-23T17:30:01.572Z,100106.81
2022-09-23T17:32:31.498Z,100105.84
2022-09-23T17:35:04.505Z,100102.97
2022-09-23T17:37:33.425Z,100105.75
2022-09-23T17:40:02.499Z,100103.44
2022-09-23T17:42:31.114Z,100107.47
2022-09-23T17:45:01.163Z,100096.56
2022-09-23T17:47:29.247Z,100108.81
2022-09-23T17:49:58.831Z,100108.22
2022-09-23T17:52:27.186Z,100117.00
2022-09-23T17:54:55.229Z,100111.28
2022-09-23T17:57:23.295Z,100110.88
2022-09-23T17:59:53.728Z,100118.69
2022-09-23T18:02:22.680Z,100118.00
2022-09-23T18:04:51.263Z,100112.13
2022-09-23T18:07:19.235Z,100115.84
2022-09-23T18:09:47.818Z,100119.84
2022-09-23T18:12:16.896Z,100114.16
2022-09-23T18:14:45.460Z,100121.87
2022-09-23T18:17:13.491Z,100124.38
2022-09-23T18:19:42.556Z,100117.56
2022-09-23T18:22:10.942Z,100108.53
2022-09-23T18:24:41.131Z,100107.47
2022-09-23T18:27:09.659Z,100116.38
2022-09-23T18:29:37.808Z,100109.56
2022-09-23T18:32:05.930Z,100116.00
2022-09-23T18:34:34.486Z,100116.59
2022-09-23T18:37:02.762Z,100110.28
2022-09-23T18:39:30.747Z,100114.38
2022-09-23T18:42:00.182Z,100121.53
2022-09-23T18:44:28.396Z,100117.97
2022-09-23T18:46:56.492Z,100119.59
2022-09-23T18:49:43.715Z,100123.44
2022-09-23T18:52:12.434Z,100115.09
2022-09-23T18:54:40.829Z,100120.72
2022-09-23T18:57:13.392Z,100120.44
2022-09-23T18:59:44.342Z,100122.75
2022-09-23T19:02:13.046Z,100122.06
2022-09-23T19:04:41.444Z,100128.50
2022-09-23T19:07:09.635Z,100123.97
2022-09-23T19:09:37.899Z,100123.81
2022-09-23T19:12:06.316Z,100124.66
2022-09-23T19:14:34.447Z,100126.28
2022-09-23T19:17:04.539Z,100128.56
2022-09-23T19:19:33.083Z,100122.84
2022-09-23T19:22:01.212Z,100125.72
2022-09-23T19:24:29.247Z,100131.81
2022-09-23T19:26:57.687Z,100122.59
2022-09-23T19:29:26.305Z,100131.63
2022-09-23T19:31:54.471Z,100127.91
2022-09-23T19:34:29.128Z,100125.41
2022-09-23T19:36:57.921Z,100128.25
2022-09-23T19:39:28.512Z,100130.69
2022-09-23T19:41:56.717Z,100123.66
2022-09-23T19:44:28.065Z,100127.28
2022-09-23T19:46:57.456Z,100134.88
2022-09-23T19:49:26.259Z,100131.06
2022-09-23T19:51:55.999Z,100137.09
2022-09-23T19:54:27.112Z,100128.94
2022-09-23T19:56:55.718Z,100130.50
2022-09-23T19:59:26.315Z,100133.22
2022-09-23T20:01:55.000Z,100129.06
2022-09-23T20:04:23.825Z,100124.72
2022-09-23T20:06:51.840Z,100124.25
2022-09-23T20:09:20.248Z,100123.41
2022-09-23T20:11:48.817Z,100130.09
2022-09-23T20:14:17.300Z,100141.47
2022-09-23T20:16:45.613Z,100138.91
2022-09-23T20:19:14.203Z,100130.88
2022-09-23T20:21:42.271Z,100134.28
2022-09-23T20:24:12.060Z,100126.34
2022-09-23T20:26:59.290Z,100121.28
2022-09-23T20:29:27.400Z,100115.34
2022-09-23T20:31:56.993Z,100126.00
2022-09-23T20:34:25.079Z,100126.81
2022-09-23T20:36:53.101Z,100117.22
2022-09-23T20:39:21.822Z,100110.69
2022-09-23T20:41:50.532Z,100120.28
2022-09-23T20:44:18.955Z,100120.72
2022-09-23T20:46:48.973Z,100117.69
2022-09-23T20:49:17.824Z,100120.06
2022-09-23T20:51:48.413Z,100119.34
2022-09-23T20:54:20.940Z,100122.31
2022-09-23T20:56:49.037Z,100121.81
2022-09-23T20:59:18.014Z,100122.44
2022-09-23T21:01:47.863Z,100122.37
2022-09-23T21:04:16.159Z,100117.06
2022-09-23T21:06:44.620Z,100124.09
2022-09-23T21:09:12.881Z,100123.84
2022-09-23T21:11:41.372Z,100122.66
2022-09-23T21:14:10.169Z,100114.56
2022-09-23T21:16:38.809Z,100107.97
2022-09-23T21:19:08.111Z,100111.87
2022-09-23T21:21:36.812Z,100116.56
2022-09-23T21:24:33.040Z,100123.91
2022-09-23T21:26:53.933Z,100121.38
2022-09-23T21:29:22.074Z,100131.56
2022-09-23T21:31:52.673Z,100131.87
2022-09-23T21:34:21.272Z,100133.03
2022-09-23T21:36:49.325Z,100115.34
2022-09-23T21:39:17.468Z,100115.47
2022-09-23T21:41:45.796Z,100123.41
2022-09-23T21:44:13.913Z,100119.22
2022-09-23T21:46:42.038Z,100122.81
2022-09-23T21:49:10.481Z,100121.75
2022-09-23T21:51:43.022Z,100123.72
2022-09-23T21:54:14.366Z,100120.28
2022-09-23T21:56:43.910Z,100127.69
2022-09-23T21:59:12.960Z,100117.22
2022-09-23T22:01:44.538Z,100120.97
2022-09-23T22:04:16.025Z,100124.59
2022-09-23T22:06:45.005Z,100127.94
2022-09-23T22:09:19.467Z,100130.12
2022-09-23T22:12:07.865Z,100130.34
2022-09-23T22:14:37.002Z,100121.28
2022-09-23T22:17:11.461Z,100133.50
2022-09-23T22:19:46.741Z,100131.34
2022-09-23T22:22:15.959Z,100124.47
2022-09-23T22:24:48.259Z,100123.81
2022-09-23T22:27:19.054Z,100130.41
2022-09-23T22:30:06.868Z,100128.69
2022-09-23T22:32:40.937Z,100126.53
2022-09-23T22:35:12.203Z,100123.28
2022-09-23T22:37:40.289Z,100135.69
2022-09-23T22:40:11.401Z,100120.00
2022-09-23T22:42:41.845Z,100130.31
2022-09-23T22:45:11.540Z,100129.38
2022-09-23T22:47:42.080Z,100133.16
2022-09-23T22:50:10.511Z,100129.03
2022-09-23T22:52:38.700Z,100131.03
2022-09-23T22:55:08.268Z,100129.03
2022-09-23T22:57:36.926Z,100126.44
2022-09-23T23:00:07.854Z,100136.44
2022-09-23T23:02:36.841Z,100126.09
2022-09-23T23:05:05.348Z,100125.50
2022-09-23T23:07:34.957Z,100124.81
2022-09-23T23:10:04.706Z,100141.19
2022-09-23T23:12:33.598Z,100134.59
2022-09-23T23:15:01.889Z,100127.09
2022-09-23T23:17:30.511Z,100118.87
2022-09-23T23:19:58.535Z,100128.78
2022-09-23T23:22:28.571Z,100128.28
2022-09-23T23:24:57.194Z,100119.72
2022-09-23T23:27:25.314Z,100129.25
2022-09-23T23:29:54.064Z,100123.81
2022-09-23T23:32:22.452Z,100114.87
2022-09-23T23:34:50.700Z,100116.97
2022-09-23T23:37:20.901Z,100119.63
2022-09-23T23:39:49.630Z,100113.22
2022-09-23T23:42:17.812Z,100114.87
2022-09-23T23:44:45.913Z,100107.47
2022-09-23T23:47:14.278Z,100114.38
2022-09-23T23:49:45.511Z,100111.66
2022-09-23T23:52:13.526Z,100117.69
2022-09-23T23:54:41.947Z,100111.56
2022-09-23T23:57:10.183Z,100112.53
2022-09-23T23:59:38.826Z,100124.19
